createdAt,value
2023-04-16T00:00:03.501Z,78.85
2023-04-16T00:01:02.472Z,78.89
2023-04-16T00:02:03.567Z,79.09
2023-04-16T00:03:02.548Z,79.19
2023-04-16T00:04:03.050Z,79.19
2023-04-16T00:05:02.483Z,79.09
2023-04-16T00:06:02.408Z,78.99
2023-04-16T00:07:02.399Z,78.89
2023-04-16T00:08:02.410Z,78.89
2023-04-16T00:09:03.394Z,78.78
2023-04-16T00:10:02.407Z,78.68
2023-04-16T00:11:02.371Z,78.68
2023-04-16T00:12:02.347Z,78.89
2023-04-16T00:13:03.333Z,78.99
2023-04-16T00:14:02.336Z,78.99
2023-04-16T00:15:02.466Z,78.89
2023-04-16T00:16:02.373Z,78.89
2023-04-16T00:17:03.340Z,78.99
2023-04-16T00:18:02.410Z,78.89
2023-04-16T00:19:02.288Z,78.89
2023-04-16T00:20:02.279Z,78.89
2023-04-16T00:21:02.247Z,78.89
2023-04-16T00:22:02.241Z,78.99
2023-04-16T00:23:02.268Z,78.89
2023-04-16T00:24:02.227Z,78.99
2023-04-16T00:25:02.238Z,78.89
2023-04-16T00:26:02.214Z,78.99
2023-04-16T00:27:02.160Z,78.99
2023-04-16T00:28:02.182Z,79.29
2023-04-16T00:29:02.171Z,78.99
2023-04-16T00:30:02.180Z,79.19
2023-04-16T00:31:02.222Z,78.99
2023-04-16T00:32:02.119Z,78.99
2023-04-16T00:33:02.193Z,78.89
2023-04-16T00:34:02.103Z,79.09
2023-04-16T00:35:02.106Z,78.78
2023-04-16T00:36:02.084Z,78.78
2023-04-16T00:37:02.090Z,78.78
2023-04-16T00:38:02.085Z,78.78
2023-04-16T00:39:02.080Z,78.68
2023-04-16T00:40:02.059Z,79.29
2023-04-16T00:41:03.021Z,78.99
2023-04-16T00:42:02.043Z,79.29
2023-04-16T00:43:02.014Z,79.19
2023-04-16T00:44:01.994Z,78.99
2023-04-16T00:45:02.108Z,78.78
2023-04-16T00:46:02.001Z,79.29
2023-04-16T00:47:01.952Z,79.09
2023-04-16T00:48:02.976Z,78.99
2023-04-16T00:49:01.957Z,78.99
2023-04-16T00:50:02.931Z,78.99
2023-04-16T00:51:02.905Z,78.78
2023-04-16T00:52:01.899Z,78.99
2023-04-16T00:53:01.900Z,78.78
2023-04-16T00:54:01.887Z,78.99
2023-04-16T00:55:01.907Z,78.99
2023-04-16T00:56:01.856Z,78.89
2023-04-16T00:57:01.886Z,78.89
2023-04-16T00:58:01.849Z,78.89
2023-04-16T00:59:02.822Z,78.99
2023-04-16T01:00:02.835Z,78.89
2023-04-16T01:01:01.803Z,78.78
2023-04-16T01:02:01.852Z,78.99
2023-04-16T01:03:01.957Z,78.99
2023-04-16T01:04:01.949Z,78.89
2023-04-16T01:05:01.781Z,78.99
2023-04-16T01:06:01.766Z,79.09
2023-04-16T01:07:01.779Z,78.68
2023-04-16T01:08:01.765Z,78.89
2023-04-16T01:09:01.724Z,78.89
2023-04-16T01:10:01.710Z,78.78
2023-04-16T01:11:01.773Z,78.99
2023-04-16T01:12:01.678Z,78.99
2023-04-16T01:13:01.699Z,78.78
2023-04-16T01:14:01.692Z,78.78
2023-04-16T01:15:01.697Z,78.89
2023-04-16T01:16:01.750Z,78.89
2023-04-16T01:17:01.675Z,79.19
2023-04-16T01:18:01.692Z,78.99
2023-04-16T01:19:01.735Z,78.99
2023-04-16T01:20:01.648Z,78.89
2023-04-16T01:21:01.597Z,78.99
2023-04-16T01:22:01.600Z,78.99
2023-04-16T01:23:02.573Z,78.99
2023-04-16T01:24:09.277Z,78.78
2023-04-16T01:25:01.540Z,78.68
2023-04-16T01:26:01.593Z,78.99
2023-04-16T01:27:01.573Z,79.19
2023-04-16T01:28:01.515Z,78.78
2023-04-16T01:29:01.540Z,78.99
2023-04-16T01:30:01.511Z,78.78
2023-04-16T01:31:01.567Z,78.78
2023-04-16T01:32:02.457Z,79.02
2023-04-16T01:33:02.516Z,79.02
2023-04-16T01:34:01.532Z,78.82
2023-04-16T01:35:01.461Z,78.82
2023-04-16T01:36:02.426Z,78.92
2023-04-16T01:37:01.431Z,79.02
2023-04-16T01:38:01.411Z,79.13
2023-04-16T01:39:01.439Z,78.92
2023-04-16T01:40:01.384Z,78.82
2023-04-16T01:41:01.416Z,78.72
2023-04-16T01:42:01.360Z,78.92
2023-04-16T01:43:02.339Z,78.89
2023-04-16T01:44:01.417Z,79.13
2023-04-16T01:45:01.525Z,79.13
2023-04-16T01:46:01.317Z,79.33
2023-04-16T01:47:02.419Z,79.13
2023-04-16T01:48:01.373Z,78.92
2023-04-16T01:49:01.275Z,78.82
2023-04-16T01:50:01.285Z,78.92
2023-04-16T01:51:01.258Z,79.09
2023-04-16T01:52:02.246Z,79.02
2023-04-16T01:53:02.259Z,78.92
2023-04-16T01:54:02.237Z,79.53
2023-04-16T01:55:02.240Z,79.53
2023-04-16T01:56:02.229Z,79.23
2023-04-16T01:57:01.191Z,79.23
2023-04-16T01:58:01.181Z,79.43
2023-04-16T01:59:01.172Z,79.09
2023-04-16T02:00:01.217Z,79.19
2023-04-16T02:01:01.198Z,78.89
2023-04-16T02:02:01.234Z,78.99
2023-04-16T02:03:01.323Z,79.50
2023-04-16T02:04:01.310Z,79.13
2023-04-16T02:05:01.105Z,78.92
2023-04-16T02:06:01.143Z,78.92
2023-04-16T02:07:01.096Z,79.02
2023-04-16T02:08:01.065Z,79.02
2023-04-16T02:09:01.086Z,78.92
2023-04-16T02:10:01.051Z,79.02
2023-04-16T02:11:01.039Z,79.19
2023-04-16T02:12:02.048Z,79.33
2023-04-16T02:13:02.041Z,79.13
2023-04-16T02:14:01.006Z,79.23
2023-04-16T02:15:00.998Z,78.82
2023-04-16T02:16:01.005Z,78.82
2023-04-16T02:17:01.006Z,78.82
2023-04-16T02:18:01.079Z,78.82
2023-04-16T02:19:00.951Z,78.92
2023-04-16T02:20:00.955Z,78.92
2023-04-16T02:21:00.937Z,79.02
2023-04-16T02:22:00.951Z,79.02
2023-04-16T02:23:00.911Z,78.82
2023-04-16T02:24:00.901Z,78.82
2023-04-16T02:25:00.876Z,79.13
2023-04-16T02:26:00.876Z,78.92
2023-04-16T02:27:00.889Z,78.82
2023-04-16T02:28:00.833Z,79.13
2023-04-16T02:29:00.839Z,78.92
2023-04-16T02:30:00.849Z,78.82
2023-04-16T02:31:00.819Z,79.02
2023-04-16T02:32:00.854Z,78.82
2023-04-16T02:33:00.866Z,78.92
2023-04-16T02:34:00.792Z,79.13
2023-04-16T02:35:00.754Z,78.92
2023-04-16T02:36:00.784Z,79.13
2023-04-16T02:37:00.752Z,79.02
2023-04-16T02:38:00.761Z,78.92
2023-04-16T02:39:00.766Z,79.23
2023-04-16T02:40:00.713Z,78.92
2023-04-16T02:41:00.696Z,78.92
2023-04-16T02:42:00.735Z,79.02
2023-04-16T02:43:00.699Z,78.82
2023-04-16T02:44:00.685Z,79.13
2023-04-16T02:45:00.717Z,78.92
2023-04-16T02:46:00.667Z,78.92
2023-04-16T02:47:01.662Z,79.02
2023-04-16T02:48:00.632Z,79.02
2023-04-16T02:49:00.659Z,79.02
2023-04-16T02:50:00.612Z,79.02
2023-04-16T02:51:00.588Z,78.82
2023-04-16T02:52:00.603Z,79.02
2023-04-16T02:53:00.581Z,79.02
2023-04-16T02:54:00.570Z,79.13
2023-04-16T02:55:00.561Z,78.92
2023-04-16T02:56:00.570Z,78.92
2023-04-16T02:57:00.570Z,78.82
2023-04-16T02:58:00.516Z,78.82
2023-04-16T02:59:00.520Z,78.82
2023-04-16T03:00:00.506Z,78.92
2023-04-16T03:01:00.528Z,79.13
2023-04-16T03:02:00.524Z,78.92
2023-04-16T03:03:00.501Z,78.92
2023-04-16T03:04:00.515Z,78.82
2023-04-16T03:05:00.494Z,78.92
2023-04-16T03:06:00.472Z,78.82
2023-04-16T03:07:00.461Z,79.13
2023-04-16T03:08:00.432Z,79.23
2023-04-16T03:09:00.399Z,78.82
2023-04-16T03:10:00.406Z,79.13
2023-04-16T03:11:00.381Z,79.13
2023-04-16T03:12:00.388Z,78.92
2023-04-16T03:13:00.373Z,78.89
2023-04-16T03:14:00.376Z,78.82
2023-04-16T03:15:00.341Z,79.13
2023-04-16T03:16:00.358Z,78.89
2023-04-16T03:17:00.347Z,79.02
2023-04-16T03:18:00.310Z,78.99
2023-04-16T03:19:01.279Z,78.82
2023-04-16T03:20:00.301Z,78.82
2023-04-16T03:21:00.341Z,78.78
2023-04-16T03:22:00.279Z,78.72
2023-04-16T03:23:00.245Z,78.82
2023-04-16T03:24:00.240Z,78.92
2023-04-16T03:25:00.232Z,78.82
2023-04-16T03:26:00.209Z,78.92
2023-04-16T03:27:00.198Z,78.92
2023-04-16T03:28:01.221Z,78.92
2023-04-16T03:29:00.188Z,78.92
2023-04-16T03:30:00.175Z,78.92
2023-04-16T03:31:01.204Z,78.92
2023-04-16T03:32:00.154Z,78.96
2023-04-16T03:33:00.188Z,79.23
2023-04-16T03:34:00.184Z,78.92
2023-04-16T03:35:00.186Z,79.33
2023-04-16T03:36:00.114Z,78.92
2023-04-16T03:37:00.151Z,79.23
2023-04-16T03:38:00.086Z,78.72
2023-04-16T03:39:00.094Z,78.92
2023-04-16T03:40:00.103Z,78.82
2023-04-16T03:41:00.137Z,78.92
2023-04-16T03:42:00.054Z,78.92
2023-04-16T03:43:00.036Z,79.33
2023-04-16T03:44:00.003Z,78.82
2023-04-16T03:44:59.999Z,78.72
2023-04-16T03:46:00.026Z,79.13
2023-04-16T03:47:00.010Z,78.92
2023-04-16T03:47:59.990Z,78.92
2023-04-16T03:48:59.947Z,78.92
2023-04-16T03:49:59.975Z,78.96
2023-04-16T03:50:59.948Z,79.13
2023-04-16T03:52:00.956Z,78.82
2023-04-16T03:52:59.950Z,79.13
2023-04-16T03:53:59.910Z,78.96
2023-04-16T03:54:59.938Z,79.16
2023-04-16T03:56:00.893Z,78.86
2023-04-16T03:56:59.885Z,78.76
2023-04-16T03:58:00.910Z,78.92
2023-04-16T03:58:59.854Z,79.06
2023-04-16T03:59:59.856Z,79.02
2023-04-16T04:00:59.830Z,79.02
2023-04-16T04:01:59.902Z,79.23
2023-04-16T04:03:00.137Z,78.92
2023-04-16T04:04:00.996Z,79.23
2023-04-16T04:04:59.864Z,79.02
2023-04-16T04:05:59.783Z,78.82
2023-04-16T04:06:59.812Z,78.92
2023-04-16T04:07:59.774Z,78.82
2023-04-16T04:08:59.790Z,78.72
2023-04-16T04:09:59.743Z,78.92
2023-04-16T04:10:59.733Z,79.02
2023-04-16T04:11:59.720Z,79.02
2023-04-16T04:12:59.744Z,78.92
2023-04-16T04:13:59.724Z,79.02
2023-04-16T04:14:59.714Z,78.82
2023-04-16T04:15:59.744Z,78.82
2023-04-16T04:16:59.673Z,79.13
2023-04-16T04:17:59.703Z,78.92
2023-04-16T04:18:59.675Z,78.82
2023-04-16T04:20:01.284Z,78.78
2023-04-16T04:20:59.622Z,79.02
2023-04-16T04:21:59.618Z,78.92
2023-04-16T04:22:59.645Z,78.92
2023-04-16T04:23:59.612Z,78.72
2023-04-16T04:24:59.631Z,79.13
2023-04-16T04:25:59.584Z,78.72
2023-04-16T04:26:59.546Z,79.02
2023-04-16T04:27:59.549Z,79.23
2023-04-16T04:28:59.526Z,79.33
2023-04-16T04:29:59.514Z,78.92
2023-04-16T04:30:59.552Z,78.92
2023-04-16T04:31:59.583Z,78.92
2023-04-16T04:32:59.543Z,79.02
2023-04-16T04:33:59.486Z,78.92
2023-04-16T04:34:59.481Z,78.92
2023-04-16T04:35:59.489Z,78.92
2023-04-16T04:36:59.444Z,79.13
2023-04-16T04:37:59.454Z,79.23
2023-04-16T04:38:59.427Z,78.92
2023-04-16T04:40:00.402Z,79.13
2023-04-16T04:40:59.443Z,79.37
2023-04-16T04:41:59.385Z,78.96
2023-04-16T04:42:59.394Z,79.06
2023-04-16T04:44:00.374Z,78.55
2023-04-16T04:44:59.373Z,79.06
2023-04-16T04:45:59.402Z,79.16
2023-04-16T04:47:00.314Z,79.06
2023-04-16T04:48:00.357Z,78.96
2023-04-16T04:48:59.333Z,78.92
2023-04-16T04:49:59.318Z,78.92
2023-04-16T04:50:59.295Z,78.92
2023-04-16T04:51:59.279Z,79.23
2023-04-16T04:52:59.298Z,78.92
2023-04-16T04:53:59.260Z,78.92
2023-04-16T04:54:59.240Z,78.82
2023-04-16T04:56:09.178Z,79.13
2023-04-16T04:57:00.262Z,79.02
2023-04-16T04:57:59.204Z,79.23
2023-04-16T04:58:59.212Z,78.92
2023-04-16T04:59:59.182Z,78.62
2023-04-16T05:00:59.259Z,79.02
2023-04-16T05:01:59.158Z,79.23
2023-04-16T05:02:59.263Z,78.72
2023-04-16T05:03:59.282Z,78.72
2023-04-16T05:04:59.221Z,78.92
2023-04-16T05:05:59.114Z,78.72
2023-04-16T05:07:00.134Z,78.82
2023-04-16T05:08:00.165Z,78.62
2023-04-16T05:08:59.085Z,78.92
2023-04-16T05:09:59.113Z,78.66
2023-04-16T05:11:00.056Z,79.06
2023-04-16T05:11:59.057Z,78.92
2023-04-16T05:12:59.059Z,78.86
2023-04-16T05:13:59.077Z,79.13
2023-04-16T05:14:59.035Z,79.23
2023-04-16T05:15:59.027Z,78.82
2023-04-16T05:16:59.071Z,78.92
2023-04-16T05:17:59.034Z,79.33
2023-04-16T05:18:59.008Z,78.72
2023-04-16T05:19:59.990Z,78.82
2023-04-16T05:20:58.967Z,78.66
2023-04-16T05:21:58.940Z,78.82
2023-04-16T05:22:58.945Z,78.62
2023-04-16T05:23:58.922Z,78.76
2023-04-16T05:24:59.960Z,78.92
2023-04-16T05:25:58.921Z,78.62
2023-04-16T05:26:59.882Z,78.72
2023-04-16T05:27:58.901Z,78.41
2023-04-16T05:28:58.896Z,78.21
2023-04-16T05:29:58.872Z,78.31
2023-04-16T05:30:58.901Z,78.11
2023-04-16T05:31:58.857Z,78.52
2023-04-16T05:33:00.023Z,78.45
2023-04-16T05:33:58.810Z,78.52
2023-04-16T05:34:58.818Z,78.52
2023-04-16T05:35:58.801Z,78.41
2023-04-16T05:36:59.816Z,78.82
2023-04-16T05:37:58.779Z,78.72
2023-04-16T05:38:58.758Z,78.82
2023-04-16T05:39:58.774Z,78.82
2023-04-16T05:40:58.779Z,78.92
2023-04-16T05:41:58.736Z,78.62
2023-04-16T05:42:58.812Z,79.02
2023-04-16T05:43:58.718Z,78.62
2023-04-16T05:44:58.729Z,78.82
2023-04-16T05:45:58.757Z,78.82
2023-04-16T05:46:59.654Z,78.82
2023-04-16T05:47:59.726Z,78.62
2023-04-16T05:48:58.648Z,78.52
2023-04-16T05:49:59.624Z,78.72
2023-04-16T05:50:58.674Z,79.06
2023-04-16T05:51:58.620Z,78.76
2023-04-16T05:52:58.593Z,78.82
2023-04-16T05:53:58.619Z,79.33
2023-04-16T05:54:59.596Z,78.72
2023-04-16T05:55:58.587Z,78.72
2023-04-16T05:56:58.573Z,78.72
2023-04-16T05:57:58.563Z,79.33
2023-04-16T05:58:58.570Z,78.72
2023-04-16T05:59:58.546Z,78.72
2023-04-16T06:00:58.547Z,78.82
2023-04-16T06:01:58.558Z,78.72
2023-04-16T06:02:58.624Z,78.72
2023-04-16T06:03:58.603Z,78.72
2023-04-16T06:04:58.491Z,78.58
2023-04-16T06:05:58.496Z,78.62
2023-04-16T06:06:58.455Z,78.58
2023-04-16T06:07:58.450Z,78.92
2023-04-16T06:08:58.454Z,78.72
2023-04-16T06:09:58.428Z,78.21
2023-04-16T06:10:58.433Z,78.41
2023-04-16T06:11:58.413Z,78.72
2023-04-16T06:12:59.401Z,78.82
2023-04-16T06:13:58.395Z,78.62
2023-04-16T06:14:59.360Z,78.82
2023-04-16T06:15:58.388Z,78.76
2023-04-16T06:16:59.399Z,79.33
2023-04-16T06:18:00.701Z,78.76
2023-04-16T06:18:58.318Z,78.62
2023-04-16T06:19:58.334Z,79.02
2023-04-16T06:20:58.296Z,78.92
2023-04-16T06:21:58.288Z,78.92
2023-04-16T06:22:58.297Z,79.33
2023-04-16T06:23:58.259Z,78.92
2023-04-16T06:24:59.245Z,78.89
2023-04-16T06:25:58.265Z,78.82
2023-04-16T06:26:58.219Z,78.58
2023-04-16T06:27:58.210Z,78.62
2023-04-16T06:28:58.241Z,78.62
2023-04-16T06:29:58.209Z,78.62
2023-04-16T06:30:58.196Z,78.92
2023-04-16T06:31:58.201Z,78.72
2023-04-16T06:32:58.251Z,79.23
2023-04-16T06:33:58.145Z,78.72
2023-04-16T06:34:58.157Z,78.72
2023-04-16T06:35:58.136Z,79.13
2023-04-16T06:36:58.142Z,79.02
2023-04-16T06:37:58.134Z,78.72
2023-04-16T06:38:59.113Z,78.92
2023-04-16T06:39:58.104Z,79.02
2023-04-16T06:40:58.131Z,79.13
2023-04-16T06:41:58.072Z,79.13
2023-04-16T06:42:58.066Z,78.92
2023-04-16T06:43:58.079Z,78.92
2023-04-16T06:44:58.023Z,78.92
2023-04-16T06:45:58.034Z,79.23
2023-04-16T06:46:58.021Z,78.92
2023-04-16T06:47:59.122Z,78.89
2023-04-16T06:48:58.023Z,78.92
2023-04-16T06:49:58.061Z,78.82
2023-04-16T06:50:57.984Z,78.92
2023-04-16T06:51:57.981Z,78.78
2023-04-16T06:52:57.938Z,78.92
2023-04-16T06:53:57.947Z,79.23
2023-04-16T06:54:57.914Z,78.62
2023-04-16T06:55:58.978Z,78.92
2023-04-16T06:56:58.908Z,79.02
2023-04-16T06:57:57.916Z,78.92
2023-04-16T06:58:57.884Z,78.82
2023-04-16T06:59:58.917Z,78.92
2023-04-16T07:00:57.959Z,78.92
2023-04-16T07:01:57.965Z,79.02
2023-04-16T07:02:58.901Z,78.62
2023-04-16T07:03:58.125Z,78.92
2023-04-16T07:04:57.833Z,78.72
2023-04-16T07:05:57.839Z,78.52
2023-04-16T07:06:57.795Z,79.23
2023-04-16T07:07:58.797Z,78.92
2023-04-16T07:08:57.797Z,79.23
2023-04-16T07:09:57.772Z,78.58
2023-04-16T07:10:57.788Z,78.99
2023-04-16T07:11:58.740Z,79.02
2023-04-16T07:12:57.719Z,78.72
2023-04-16T07:13:57.741Z,78.78
2023-04-16T07:14:57.720Z,78.62
2023-04-16T07:15:57.716Z,78.72
2023-04-16T07:16:57.867Z,78.68
2023-04-16T07:17:57.740Z,79.09
2023-04-16T07:18:57.652Z,79.29
2023-04-16T07:19:58.684Z,78.89
2023-04-16T07:20:57.664Z,78.48
2023-04-16T07:21:57.658Z,78.68
2023-04-16T07:22:57.622Z,78.78
2023-04-16T07:23:57.597Z,78.58
2023-04-16T07:24:57.598Z,78.78
2023-04-16T07:25:57.599Z,78.72
2023-04-16T07:26:57.596Z,78.48
2023-04-16T07:27:57.565Z,78.78
2023-04-16T07:28:57.568Z,78.38
2023-04-16T07:29:57.563Z,78.72
2023-04-16T07:30:57.544Z,78.82
2023-04-16T07:31:57.570Z,78.58
2023-04-16T07:32:57.552Z,78.68
2023-04-16T07:33:58.513Z,78.99
2023-04-16T07:34:57.499Z,78.68
2023-04-16T07:35:57.524Z,78.68
2023-04-16T07:36:57.540Z,78.89
2023-04-16T07:37:57.459Z,78.68
2023-04-16T07:38:57.458Z,78.62
2023-04-16T07:39:57.510Z,78.62
2023-04-16T07:40:57.425Z,78.52
2023-04-16T07:41:58.430Z,78.72
2023-04-16T07:42:57.469Z,79.02
2023-04-16T07:43:57.396Z,79.02
2023-04-16T07:44:57.400Z,79.13
2023-04-16T07:45:57.389Z,79.13
2023-04-16T07:46:57.408Z,79.02
2023-04-16T07:47:58.397Z,79.29
2023-04-16T07:48:58.336Z,78.99
2023-04-16T07:49:57.363Z,78.99
2023-04-16T07:50:57.325Z,78.89
2023-04-16T07:51:57.310Z,78.68
2023-04-16T07:52:58.304Z,78.78
2023-04-16T07:53:57.307Z,78.68
2023-04-16T07:54:57.275Z,78.89
2023-04-16T07:55:57.267Z,78.78
2023-04-16T07:56:57.278Z,78.78
2023-04-16T07:57:57.267Z,78.78
2023-04-16T07:58:58.330Z,78.58
2023-04-16T07:59:58.211Z,78.48
2023-04-16T08:00:57.191Z,77.81
2023-04-16T08:01:57.210Z,78.01
2023-04-16T08:02:57.251Z,78.21
2023-04-16T08:03:57.307Z,78.21
2023-04-16T08:04:57.359Z,78.31
2023-04-16T08:05:58.139Z,78.21
2023-04-16T08:06:58.136Z,78.21
2023-04-16T08:07:57.144Z,78.52
2023-04-16T08:08:58.133Z,78.72
2023-04-16T08:09:57.117Z,78.52
2023-04-16T08:10:57.148Z,78.62
2023-04-16T08:11:58.092Z,78.41
2023-04-16T08:12:58.084Z,78.62
2023-04-16T08:13:57.071Z,78.72
2023-04-16T08:14:57.069Z,78.82
2023-04-16T08:15:57.118Z,78.62
2023-04-16T08:16:57.049Z,78.72
2023-04-16T08:17:57.037Z,78.86
2023-04-16T08:18:57.032Z,78.96
2023-04-16T08:19:56.986Z,78.96
2023-04-16T08:20:57.006Z,79.06
2023-04-16T08:21:57.003Z,78.96
2023-04-16T08:22:56.975Z,79.06
2023-04-16T08:23:56.971Z,78.86
2023-04-16T08:24:56.960Z,78.96
2023-04-16T08:25:56.942Z,79.02
2023-04-16T08:27:02.423Z,78.92
2023-04-16T08:27:57.923Z,79.13
2023-04-16T08:28:56.888Z,78.72
2023-04-16T08:29:56.919Z,78.62
2023-04-16T08:30:57.963Z,78.62
2023-04-16T08:31:56.880Z,78.45
2023-04-16T08:32:56.897Z,78.92
2023-04-16T08:33:56.868Z,78.72
2023-04-16T08:34:56.823Z,78.82
2023-04-16T08:35:56.892Z,78.62
2023-04-16T08:36:56.821Z,78.82
2023-04-16T08:37:56.812Z,78.82
2023-04-16T08:38:56.800Z,78.31
2023-04-16T08:39:56.798Z,78.76
2023-04-16T08:40:56.779Z,78.96
2023-04-16T08:41:56.793Z,79.16
2023-04-16T08:42:56.750Z,78.76
2023-04-16T08:43:56.736Z,78.96
2023-04-16T08:44:56.745Z,78.96
2023-04-16T08:45:56.749Z,79.06
2023-04-16T08:46:56.760Z,78.76
2023-04-16T08:47:57.726Z,78.41
2023-04-16T08:48:56.723Z,78.72
2023-04-16T08:49:58.382Z,78.72
2023-04-16T08:50:56.693Z,78.68
2023-04-16T08:51:56.675Z,78.21
2023-04-16T08:52:57.653Z,78.66
2023-04-16T08:53:57.666Z,78.25
2023-04-16T08:54:57.640Z,79.06
2023-04-16T08:55:57.590Z,78.76
2023-04-16T08:56:56.615Z,78.66
2023-04-16T08:57:56.612Z,78.86
2023-04-16T08:58:56.585Z,78.66
2023-04-16T08:59:56.559Z,78.76
2023-04-16T09:00:56.578Z,78.76
2023-04-16T09:01:56.644Z,78.62
2023-04-16T09:02:56.665Z,78.52
2023-04-16T09:03:56.750Z,78.31
2023-04-16T09:04:57.673Z,78.52
2023-04-16T09:05:57.546Z,78.05
2023-04-16T09:06:56.491Z,78.25
2023-04-16T09:07:56.480Z,78.25
2023-04-16T09:08:56.486Z,78.05
2023-04-16T09:09:56.465Z,78.31
2023-04-16T09:10:56.466Z,78.45
2023-04-16T09:11:56.462Z,78.25
2023-04-16T09:12:56.442Z,78.76
2023-04-16T09:13:56.404Z,79.06
2023-04-16T09:14:56.386Z,78.66
2023-04-16T09:15:57.484Z,77.74
2023-04-16T09:16:56.382Z,79.10
2023-04-16T09:17:56.405Z,78.96
2023-04-16T09:18:56.398Z,78.96
2023-04-16T09:19:56.347Z,79.06
2023-04-16T09:20:56.367Z,78.72
2023-04-16T09:21:57.335Z,78.72
2023-04-16T09:22:56.326Z,78.41
2023-04-16T09:23:56.297Z,78.35
2023-04-16T09:24:56.344Z,78.55
2023-04-16T09:25:56.284Z,78.76
2023-04-16T09:26:56.247Z,78.66
2023-04-16T09:27:57.245Z,78.52
2023-04-16T09:28:56.262Z,78.62
2023-04-16T09:29:56.252Z,78.35
2023-04-16T09:30:56.231Z,78.76
2023-04-16T09:31:56.275Z,78.55
2023-04-16T09:32:57.309Z,78.72
2023-04-16T09:33:57.183Z,78.31
2023-04-16T09:34:56.183Z,78.41
2023-04-16T09:35:56.164Z,78.25
2023-04-16T09:36:56.165Z,78.55
2023-04-16T09:37:57.155Z,78.55
2023-04-16T09:38:57.686Z,78.89
2023-04-16T09:39:56.108Z,79.06
2023-04-16T09:40:56.117Z,79.06
2023-04-16T09:41:57.108Z,78.86
2023-04-16T09:42:56.115Z,78.72
2023-04-16T09:43:57.131Z,78.41
2023-04-16T09:44:58.570Z,78.82
2023-04-16T09:45:56.071Z,78.58
2023-04-16T09:46:56.043Z,78.89
2023-04-16T09:47:56.088Z,78.52
2023-04-16T09:48:56.041Z,78.21
2023-04-16T09:49:56.067Z,78.76
2023-04-16T09:50:56.009Z,78.76
2023-04-16T09:51:56.001Z,78.76
2023-04-16T09:52:55.980Z,78.76
2023-04-16T09:53:55.988Z,79.10
2023-04-16T09:54:57.009Z,79.06
2023-04-16T09:55:55.953Z,78.35
2023-04-16T09:56:55.993Z,78.52
2023-04-16T09:57:55.933Z,78.96
2023-04-16T09:58:55.900Z,78.96
2023-04-16T09:59:55.906Z,79.06
2023-04-16T10:00:55.957Z,78.76
2023-04-16T10:02:12.325Z,79.37
2023-04-16T10:02:56.946Z,78.76
2023-04-16T10:03:56.989Z,78.96
2023-04-16T10:04:56.889Z,78.55
2023-04-16T10:05:55.862Z,78.89
2023-04-16T10:06:56.827Z,78.96
2023-04-16T10:07:55.871Z,78.96
2023-04-16T10:08:55.806Z,78.76
2023-04-16T10:09:55.815Z,78.35
2023-04-16T10:10:56.801Z,79.06
2023-04-16T10:11:55.766Z,78.92
2023-04-16T10:12:55.787Z,78.62
2023-04-16T10:13:55.738Z,78.68
2023-04-16T10:14:55.751Z,79.09
2023-04-16T10:15:55.780Z,78.99
2023-04-16T10:16:56.739Z,79.16
2023-04-16T10:17:55.748Z,78.48
2023-04-16T10:18:55.725Z,78.89
2023-04-16T10:19:55.697Z,78.38
2023-04-16T10:20:55.686Z,78.58
2023-04-16T10:21:56.680Z,78.21
2023-04-16T10:22:56.653Z,78.62
2023-04-16T10:23:55.648Z,78.52
2023-04-16T10:24:55.673Z,78.66
2023-04-16T10:25:57.640Z,78.66
2023-04-16T10:26:55.619Z,78.96
2023-04-16T10:27:55.636Z,78.72
2023-04-16T10:28:55.592Z,78.92
2023-04-16T10:29:55.598Z,78.48
2023-04-16T10:30:55.641Z,78.25
2023-04-16T10:31:56.557Z,78.62
2023-04-16T10:32:56.731Z,78.62
2023-04-16T10:33:55.534Z,78.72
2023-04-16T10:34:55.544Z,78.31
2023-04-16T10:36:07.127Z,78.21
2023-04-16T10:36:56.496Z,78.21
2023-04-16T10:37:55.474Z,78.52
2023-04-16T10:38:56.482Z,78.31
2023-04-16T10:39:55.464Z,78.45
2023-04-16T10:40:55.484Z,78.15
2023-04-16T10:41:55.475Z,78.25
2023-04-16T10:42:55.436Z,78.86
2023-04-16T10:43:55.427Z,78.11
2023-04-16T10:44:55.440Z,78.52
2023-04-16T10:45:55.412Z,78.25
2023-04-16T10:46:55.405Z,78.41
2023-04-16T10:47:56.425Z,78.08
2023-04-16T10:48:55.385Z,77.40
2023-04-16T10:49:55.366Z,76.86
2023-04-16T10:50:55.441Z,77.16
2023-04-16T10:51:55.354Z,77.67
2023-04-16T10:52:55.387Z,77.67
2023-04-16T10:53:55.346Z,78.17
2023-04-16T10:54:55.301Z,77.91
2023-04-16T10:55:55.300Z,77.81
2023-04-16T10:56:55.304Z,77.97
2023-04-16T10:57:55.298Z,78.38
2023-04-16T10:58:55.303Z,77.81
2023-04-16T10:59:55.303Z,77.91
2023-04-16T11:00:55.239Z,78.21
2023-04-16T11:01:55.323Z,78.86
2023-04-16T11:02:55.402Z,79.23
2023-04-16T11:03:55.330Z,78.62
2023-04-16T11:04:56.340Z,78.38
2023-04-16T11:05:55.180Z,77.87
2023-04-16T11:06:55.190Z,76.38
2023-04-16T11:07:55.179Z,78.45
2023-04-16T11:08:55.508Z,78.76
2023-04-16T11:09:56.216Z,78.82
2023-04-16T11:10:55.142Z,78.38
2023-04-16T11:11:55.115Z,77.77
2023-04-16T11:12:55.115Z,78.17
2023-04-16T11:13:55.143Z,78.24
2023-04-16T11:14:55.211Z,78.04
2023-04-16T11:15:56.127Z,77.63
2023-04-16T11:16:55.043Z,77.12
2023-04-16T11:17:55.070Z,76.10
2023-04-16T11:18:56.321Z,77.22
2023-04-16T11:19:55.033Z,75.90
2023-04-16T11:20:55.067Z,76.86
2023-04-16T11:21:55.024Z,77.26
2023-04-16T11:22:55.024Z,77.56
2023-04-16T11:23:55.057Z,77.67
2023-04-16T11:25:02.587Z,77.33
2023-04-16T11:25:55.967Z,76.82
2023-04-16T11:26:54.949Z,77.26
2023-04-16T11:27:55.033Z,76.92
2023-04-16T11:28:55.001Z,77.16
2023-04-16T11:29:54.964Z,77.06
2023-04-16T11:30:54.910Z,77.16
2023-04-16T11:31:54.989Z,77.06
2023-04-16T11:32:54.979Z,77.16
2023-04-16T11:33:54.873Z,77.56
2023-04-16T11:34:54.854Z,76.86
2023-04-16T11:35:54.908Z,77.67
2023-04-16T11:36:54.861Z,77.50
2023-04-16T11:37:54.820Z,77.50
2023-04-16T11:38:55.849Z,78.35
2023-04-16T11:39:54.833Z,78.21
2023-04-16T11:40:55.847Z,77.91
2023-04-16T11:41:54.802Z,78.25
2023-04-16T11:42:56.209Z,78.05
2023-04-16T11:43:55.762Z,78.21
2023-04-16T11:44:54.768Z,78.21
2023-04-16T11:45:54.768Z,78.11
2023-04-16T11:46:54.838Z,78.86
2023-04-16T11:47:54.766Z,78.15
2023-04-16T11:48:54.727Z,78.52
2023-04-16T11:49:54.701Z,78.41
2023-04-16T11:50:54.696Z,77.81
2023-04-16T11:51:54.705Z,78.17
2023-04-16T11:52:54.700Z,78.17
2023-04-16T11:53:54.662Z,77.67
2023-04-16T11:54:54.638Z,77.56
2023-04-16T11:55:55.654Z,77.87
2023-04-16T11:56:54.666Z,77.97
2023-04-16T11:57:54.645Z,78.21
2023-04-16T11:58:54.616Z,77.81
2023-04-16T12:00:01.616Z,78.11
2023-04-16T12:00:55.585Z,78.28
2023-04-16T12:01:54.646Z,78.01
2023-04-16T12:02:54.929Z,78.21
2023-04-16T12:03:55.084Z,77.81
2023-04-16T12:04:54.617Z,77.87
2023-04-16T12:05:54.603Z,77.36
2023-04-16T12:06:54.518Z,77.16
2023-04-16T12:07:54.503Z,77.16
2023-04-16T12:08:54.492Z,77.16
2023-04-16T12:09:54.487Z,77.77
2023-04-16T12:10:54.475Z,77.36
2023-04-16T12:11:55.496Z,78.21
2023-04-16T12:12:54.465Z,77.67
2023-04-16T12:13:55.471Z,77.67
2023-04-16T12:14:54.439Z,77.67
2023-04-16T12:15:54.412Z,77.26
2023-04-16T12:16:54.491Z,76.86
2023-04-16T12:17:55.426Z,77.67
2023-04-16T12:18:54.377Z,77.63
2023-04-16T12:19:55.375Z,77.83
2023-04-16T12:20:54.376Z,76.95
2023-04-16T12:21:54.421Z,77.47
2023-04-16T12:22:54.394Z,77.26
2023-04-16T12:23:54.333Z,77.47
2023-04-16T12:24:54.325Z,76.82
2023-04-16T12:25:54.336Z,77.12
2023-04-16T12:26:54.295Z,77.43
2023-04-16T12:27:55.295Z,76.95
2023-04-16T12:28:54.254Z,77.26
2023-04-16T12:29:55.289Z,76.95
2023-04-16T12:30:54.293Z,77.47
2023-04-16T12:31:54.281Z,77.06
2023-04-16T12:32:56.038Z,77.16
2023-04-16T12:33:54.214Z,77.16
2023-04-16T12:34:54.205Z,77.87
2023-04-16T12:35:54.191Z,77.63
2023-04-16T12:36:54.209Z,78.17
2023-04-16T12:37:54.222Z,77.40
2023-04-16T12:38:54.211Z,78.62
2023-04-16T12:39:54.164Z,78.62
2023-04-16T12:40:54.162Z,78.52
2023-04-16T12:41:54.134Z,78.48
2023-04-16T12:42:54.136Z,78.17
2023-04-16T12:43:54.151Z,78.08
2023-04-16T12:44:54.143Z,78.21
2023-04-16T12:45:54.155Z,78.48
2023-04-16T12:46:54.167Z,77.87
2023-04-16T12:47:54.108Z,77.87
2023-04-16T12:48:54.067Z,78.38
2023-04-16T12:49:54.084Z,78.04
2023-04-16T12:50:54.059Z,77.77
2023-04-16T12:51:55.023Z,77.94